sensor_id;sensor_type;location;lat;lon;timestamp;P1;durP1;ratioP1;P2;durP2;ratioP2
76863;SDS011;65834;52.364;9.754;2024-03-08T00:00:55;24.85;;;12.57;;
76863;SDS011;65834;52.364;9.754;2024-03-08T00:03:25;22.63;;;10.73;;
76863;SDS011;65834;52.364;9.754;2024-03-08T00:05:55;22.77;;;12.40;;
76863;SDS011;65834;52.364;9.754;2024-03-08T00:08:25;25.70;;;11.87;;
76863;SDS011;65834;52.364;9.754;2024-03-08T00:10:57;24.17;;;11.87;;
76863;SDS011;65834;52.364;9.754;2024-03-08T00:13:29;23.07;;;11.87;;
76863;SDS011;65834;52.364;9.754;2024-03-08T00:15:59;23.63;;;11.20;;
76863;SDS011;65834;52.364;9.754;2024-03-08T00:18:28;23.60;;;11.83;;
76863;SDS011;65834;52.364;9.754;2024-03-08T00:20:59;22.87;;;11.77;;
76863;SDS011;65834;52.364;9.754;2024-03-08T00:23:28;22.40;;;10.30;;
76863;SDS011;65834;52.364;9.754;2024-03-08T00:26:00;20.73;;;10.40;;
76863;SDS011;65834;52.364;9.754;2024-03-08T00:28:33;22.00;;;12.43;;
76863;SDS011;65834;52.364;9.754;2024-03-08T00:31:03;24.30;;;11.63;;
76863;SDS011;65834;52.364;9.754;2024-03-08T00:33:33;22.73;;;11.60;;
76863;SDS011;65834;52.364;9.754;2024-03-08T00:36:03;24.43;;;12.17;;
76863;SDS011;65834;52.364;9.754;2024-03-08T00:38:34;24.63;;;12.37;;
76863;SDS011;65834;52.364;9.754;2024-03-08T00:41:04;22.50;;;11.63;;
76863;SDS011;65834;52.364;9.754;2024-03-08T00:43:36;24.87;;;12.53;;
76863;SDS011;65834;52.364;9.754;2024-03-08T00:46:06;25.10;;;12.98;;
76863;SDS011;65834;52.364;9.754;2024-03-08T00:48:35;20.23;;;10.73;;
76863;SDS011;65834;52.364;9.754;2024-03-08T00:51:05;25.13;;;11.87;;
76863;SDS011;65834;52.364;9.754;2024-03-08T00:53:35;23.77;;;12.03;;
76863;SDS011;65834;52.364;9.754;2024-03-08T00:56:05;23.10;;;12.00;;
76863;SDS011;65834;52.364;9.754;2024-03-08T00:58:32;25.30;;;11.57;;
76863;SDS011;65834;52.364;9.754;2024-03-08T01:01:04;23.83;;;11.77;;
76863;SDS011;65834;52.364;9.754;2024-03-08T01:03:34;24.27;;;11.45;;
76863;SDS011;65834;52.364;9.754;2024-03-08T01:06:03;22.90;;;11.50;;
76863;SDS011;65834;52.364;9.754;2024-03-08T01:08:33;23.33;;;12.23;;
76863;SDS011;65834;52.364;9.754;2024-03-08T01:11:05;23.90;;;11.83;;
76863;SDS011;65834;52.364;9.754;2024-03-08T01:13:34;23.97;;;11.60;;
76863;SDS011;65834;52.364;9.754;2024-03-08T01:16:07;26.40;;;12.20;;
76863;SDS011;65834;52.364;9.754;2024-03-08T01:18:40;26.43;;;12.40;;
76863;SDS011;65834;52.364;9.754;2024-03-08T01:21:09;24.40;;;12.40;;
76863;SDS011;65834;52.364;9.754;2024-03-08T01:23:39;23.23;;;12.10;;
76863;SDS011;65834;52.364;9.754;2024-03-08T01:26:09;24.10;;;11.90;;
76863;SDS011;65834;52.364;9.754;2024-03-08T01:28:38;22.83;;;12.07;;
76863;SDS011;65834;52.364;9.754;2024-03-08T01:31:10;24.43;;;11.67;;
76863;SDS011;65834;52.364;9.754;2024-03-08T01:33:40;23.23;;;10.98;;
76863;SDS011;65834;52.364;9.754;2024-03-08T01:36:10;24.90;;;12.03;;
76863;SDS011;65834;52.364;9.754;2024-03-08T01:38:42;24.97;;;12.43;;
76863;SDS011;65834;52.364;9.754;2024-03-08T01:41:11;23.63;;;11.50;;
76863;SDS011;65834;52.364;9.754;2024-03-08T01:43:44;24.48;;;11.85;;
76863;SDS011;65834;52.364;9.754;2024-03-08T01:46:17;25.67;;;12.03;;
76863;SDS011;65834;52.364;9.754;2024-03-08T01:48:50;26.07;;;12.40;;
76863;SDS011;65834;52.364;9.754;2024-03-08T01:51:20;27.30;;;12.03;;
76863;SDS011;65834;52.364;9.754;2024-03-08T01:53:50;23.50;;;12.30;;
76863;SDS011;65834;52.364;9.754;2024-03-08T01:56:20;25.13;;;12.83;;
76863;SDS011;65834;52.364;9.754;2024-03-08T01:58:52;24.97;;;11.57;;
76863;SDS011;65834;52.364;9.754;2024-03-08T02:01:24;24.37;;;11.87;;
76863;SDS011;65834;52.364;9.754;2024-03-08T02:03:55;23.13;;;11.50;;
76863;SDS011;65834;52.364;9.754;2024-03-08T02:06:25;23.77;;;11.97;;
76863;SDS011;65834;52.364;9.754;2024-03-08T02:08:54;23.67;;;11.93;;
76863;SDS011;65834;52.364;9.754;2024-03-08T02:11:24;25.90;;;10.70;;
76863;SDS011;65834;52.364;9.754;2024-03-08T02:13:54;26.17;;;12.10;;
76863;SDS011;65834;52.364;9.754;2024-03-08T02:16:27;25.17;;;12.50;;
76863;SDS011;65834;52.364;9.754;2024-03-08T02:18:56;23.52;;;11.93;;
76863;SDS011;65834;52.364;9.754;2024-03-08T02:21:29;24.97;;;12.07;;
76863;SDS011;65834;52.364;9.754;2024-03-08T02:23:59;24.83;;;11.55;;
76863;SDS011;65834;52.364;9.754;2024-03-08T02:26:29;26.67;;;12.90;;
76863;SDS011;65834;52.364;9.754;2024-03-08T02:28:58;24.67;;;12.77;;
76863;SDS011;65834;52.364;9.754;2024-03-08T02:31:28;22.23;;;11.90;;
76863;SDS011;65834;52.364;9.754;2024-03-08T02:33:58;25.33;;;12.10;;
76863;SDS011;65834;52.364;9.754;2024-03-08T02:36:30;25.20;;;11.43;;
76863;SDS011;65834;52.364;9.754;2024-03-08T02:39:03;24.77;;;12.73;;
76863;SDS011;65834;52.364;9.754;2024-03-08T02:41:33;23.83;;;11.67;;
76863;SDS011;65834;52.364;9.754;2024-03-08T02:44:03;24.77;;;12.43;;
76863;SDS011;65834;52.364;9.754;2024-03-08T02:46:33;23.10;;;12.07;;
76863;SDS011;65834;52.364;9.754;2024-03-08T02:49:03;24.27;;;12.90;;
76863;SDS011;65834;52.364;9.754;2024-03-08T02:51:37;24.37;;;12.20;;
76863;SDS011;65834;52.364;9.754;2024-03-08T02:56:36;27.67;;;11.93;;
76863;SDS011;65834;52.364;9.754;2024-03-08T02:59:06;24.57;;;11.93;;
76863;SDS011;65834;52.364;9.754;2024-03-08T03:01:36;24.93;;;11.37;;
76863;SDS011;65834;52.364;9.754;2024-03-08T03:04:05;25.50;;;11.50;;
76863;SDS011;65834;52.364;9.754;2024-03-08T03:06:37;22.70;;;11.00;;
76863;SDS011;65834;52.364;9.754;2024-03-08T03:09:07;24.90;;;12.10;;
76863;SDS011;65834;52.364;9.754;2024-03-08T03:11:37;26.17;;;11.73;;
76863;SDS011;65834;52.364;9.754;2024-03-08T03:14:07;25.67;;;11.53;;
76863;SDS011;65834;52.364;9.754;2024-03-08T03:16:36;24.87;;;12.23;;
76863;SDS011;65834;52.364;9.754;2024-03-08T03:19:07;24.27;;;11.90;;
76863;SDS011;65834;52.364;9.754;2024-03-08T03:21:39;25.47;;;13.07;;
76863;SDS011;65834;52.364;9.754;2024-03-08T03:24:09;23.60;;;12.23;;
76863;SDS011;65834;52.364;9.754;2024-03-08T03:26:43;24.97;;;11.87;;
76863;SDS011;65834;52.364;9.754;2024-03-08T03:29:15;27.42;;;14.05;;
76863;SDS011;65834;52.364;9.754;2024-03-08T03:31:46;24.80;;;11.97;;
76863;SDS011;65834;52.364;9.754;2024-03-08T03:34:16;23.50;;;11.40;;
76863;SDS011;65834;52.364;9.754;2024-03-08T03:36:48;27.37;;;13.27;;
76863;SDS011;65834;52.364;9.754;2024-03-08T03:39:18;26.23;;;11.85;;
76863;SDS011;65834;52.364;9.754;2024-03-08T03:41:49;22.17;;;11.13;;
76863;SDS011;65834;52.364;9.754;2024-03-08T03:44:18;23.57;;;11.50;;
76863;SDS011;65834;52.364;9.754;2024-03-08T03:46:50;26.30;;;12.53;;
76863;SDS011;65834;52.364;9.754;2024-03-08T03:49:19;26.00;;;12.03;;
76863;SDS011;65834;52.364;9.754;2024-03-08T03:51:53;24.87;;;12.77;;
76863;SDS011;65834;52.364;9.754;2024-03-08T03:54:22;27.30;;;13.70;;
76863;SDS011;65834;52.364;9.754;2024-03-08T03:56:52;24.83;;;12.17;;
76863;SDS011;65834;52.364;9.754;2024-03-08T03:59:22;24.17;;;11.33;;
76863;SDS011;65834;52.364;9.754;2024-03-08T04:01:51;22.40;;;12.13;;
76863;SDS011;65834;52.364;9.754;2024-03-08T04:07:53;26.50;;;10.90;;
76863;SDS011;65834;52.364;9.754;2024-03-08T04:10:22;26.35;;;11.88;;
76863;SDS011;65834;52.364;9.754;2024-03-08T04:12:51;24.73;;;12.00;;
76863;SDS011;65834;52.364;9.754;2024-03-08T04:15:23;23.40;;;12.10;;
76863;SDS011;65834;52.364;9.754;2024-03-08T04:17:52;23.93;;;12.43;;
76863;SDS011;65834;52.364;9.754;2024-03-08T04:20:24;23.40;;;12.07;;
76863;SDS011;65834;52.364;9.754;2024-03-08T04:22:56;25.57;;;11.47;;
76863;SDS011;65834;52.364;9.754;2024-03-08T04:25:25;27.67;;;11.80;;
76863;SDS011;65834;52.364;9.754;2024-03-08T04:27:56;24.77;;;12.37;;
76863;SDS011;65834;52.364;9.754;2024-03-08T04:30:25;26.10;;;11.27;;
76863;SDS011;65834;52.364;9.754;2024-03-08T04:32:55;24.37;;;11.77;;
76863;SDS011;65834;52.364;9.754;2024-03-08T04:35:25;27.67;;;12.57;;
76863;SDS011;65834;52.364;9.754;2024-03-08T04:37:57;23.27;;;11.70;;
76863;SDS011;65834;52.364;9.754;2024-03-08T04:40:27;23.33;;;11.57;;
76863;SDS011;65834;52.364;9.754;2024-03-08T04:42:57;27.13;;;12.03;;
76863;SDS011;65834;52.364;9.754;2024-03-08T04:45:28;22.30;;;11.80;;
76863;SDS011;65834;52.364;9.754;2024-03-08T04:47:58;22.67;;;12.77;;
76863;SDS011;65834;52.364;9.754;2024-03-08T04:50:28;24.63;;;10.67;;
76863;SDS011;65834;52.364;9.754;2024-03-08T04:53:00;23.80;;;11.60;;
76863;SDS011;65834;52.364;9.754;2024-03-08T04:55:30;25.88;;;12.90;;
76863;SDS011;65834;52.364;9.754;2024-03-08T04:57:59;25.90;;;13.57;;
76863;SDS011;65834;52.364;9.754;2024-03-08T05:00:30;26.20;;;12.67;;
76863;SDS011;65834;52.364;9.754;2024-03-08T05:03:00;25.47;;;11.97;;
76863;SDS011;65834;52.364;9.754;2024-03-08T05:05:31;24.50;;;12.33;;
76863;SDS011;65834;52.364;9.754;2024-03-08T05:08:04;27.50;;;12.03;;
76863;SDS011;65834;52.364;9.754;2024-03-08T05:10:34;25.67;;;12.57;;
76863;SDS011;65834;52.364;9.754;2024-03-08T05:13:04;24.90;;;11.33;;
76863;SDS011;65834;52.364;9.754;2024-03-08T05:15:33;27.57;;;12.57;;
76863;SDS011;65834;52.364;9.754;2024-03-08T05:18:03;23.63;;;11.67;;
76863;SDS011;65834;52.364;9.754;2024-03-08T05:20:33;24.67;;;12.10;;
76863;SDS011;65834;52.364;9.754;2024-03-08T05:23:06;24.60;;;12.83;;
76863;SDS011;65834;52.364;9.754;2024-03-08T05:25:36;25.92;;;12.98;;
76863;SDS011;65834;52.364;9.754;2024-03-08T05:28:05;26.50;;;12.40;;
76863;SDS011;65834;52.364;9.754;2024-03-08T05:30:35;23.97;;;12.80;;
76863;SDS011;65834;52.364;9.754;2024-03-08T05:33:07;24.33;;;12.80;;
76863;SDS011;65834;52.364;9.754;2024-03-08T05:35:36;27.50;;;13.20;;
76863;SDS011;65834;52.364;9.754;2024-03-08T05:38:09;25.37;;;13.37;;
76863;SDS011;65834;52.364;9.754;2024-03-08T05:40:39;26.40;;;12.25;;
76863;SDS011;65834;52.364;9.754;2024-03-08T05:43:09;24.30;;;13.53;;
76863;SDS011;65834;52.364;9.754;2024-03-08T05:45:39;26.63;;;13.90;;
76863;SDS011;65834;52.364;9.754;2024-03-08T05:48:09;24.60;;;12.70;;
76863;SDS011;65834;52.364;9.754;2024-03-08T05:50:39;26.37;;;13.63;;
76863;SDS011;65834;52.364;9.754;2024-03-08T05:53:12;27.77;;;14.17;;
76863;SDS011;65834;52.364;9.754;2024-03-08T05:55:42;28.00;;;14.23;;
76863;SDS011;65834;52.364;9.754;2024-03-08T05:58:12;23.90;;;13.57;;
76863;SDS011;65834;52.364;9.754;2024-03-08T06:00:42;27.23;;;13.40;;
76863;SDS011;65834;52.364;9.754;2024-03-08T06:03:15;26.43;;;13.37;;
76863;SDS011;65834;52.364;9.754;2024-03-08T06:05:48;24.37;;;12.87;;
76863;SDS011;65834;52.364;9.754;2024-03-08T06:08:21;27.90;;;13.77;;
76863;SDS011;65834;52.364;9.754;2024-03-08T06:10:56;25.80;;;13.23;;
76863;SDS011;65834;52.364;9.754;2024-03-08T06:13:26;27.23;;;14.50;;
76863;SDS011;65834;52.364;9.754;2024-03-08T06:15:57;26.77;;;13.60;;
76863;SDS011;65834;52.364;9.754;2024-03-08T06:18:27;25.50;;;13.60;;
76863;SDS011;65834;52.364;9.754;2024-03-08T06:20:57;21.77;;;11.97;;
76863;SDS011;65834;52.364;9.754;2024-03-08T06:23:29;25.27;;;12.03;;
76863;SDS011;65834;52.364;9.754;2024-03-08T06:26:00;29.02;;;14.63;;
76863;SDS011;65834;52.364;9.754;2024-03-08T06:28:30;26.33;;;13.53;;
76863;SDS011;65834;52.364;9.754;2024-03-08T06:31:01;28.37;;;13.67;;
76863;SDS011;65834;52.364;9.754;2024-03-08T06:33:31;27.30;;;14.63;;
76863;SDS011;65834;52.364;9.754;2024-03-08T06:36:02;28.20;;;14.33;;
76863;SDS011;65834;52.364;9.754;2024-03-08T06:38:34;27.67;;;12.97;;
76863;SDS011;65834;52.364;9.754;2024-03-08T06:41:08;25.37;;;14.43;;
76863;SDS011;65834;52.364;9.754;2024-03-08T06:43:42;27.17;;;14.57;;
76863;SDS011;65834;52.364;9.754;2024-03-08T06:46:12;27.00;;;14.63;;
76863;SDS011;65834;52.364;9.754;2024-03-08T06:48:41;27.20;;;13.97;;
76863;SDS011;65834;52.364;9.754;2024-03-08T06:51:12;25.97;;;12.90;;
76863;SDS011;65834;52.364;9.754;2024-03-08T06:53:44;27.03;;;13.70;;
76863;SDS011;65834;52.364;9.754;2024-03-08T06:56:15;26.17;;;14.00;;
76863;SDS011;65834;52.364;9.754;2024-03-08T06:58:46;30.27;;;15.00;;
76863;SDS011;65834;52.364;9.754;2024-03-08T07:01:15;27.53;;;14.37;;
76863;SDS011;65834;52.364;9.754;2024-03-08T07:03:45;25.80;;;12.67;;
76863;SDS011;65834;52.364;9.754;2024-03-08T07:06:15;25.67;;;13.83;;
76863;SDS011;65834;52.364;9.754;2024-03-08T07:08:48;26.37;;;14.47;;
76863;SDS011;65834;52.364;9.754;2024-03-08T07:11:18;27.02;;;14.48;;
76863;SDS011;65834;52.364;9.754;2024-03-08T07:13:48;27.67;;;14.37;;
76863;SDS011;65834;52.364;9.754;2024-03-08T07:16:18;25.77;;;14.10;;
76863;SDS011;65834;52.364;9.754;2024-03-08T07:18:48;26.37;;;13.73;;
76863;SDS011;65834;52.364;9.754;2024-03-08T07:21:19;27.43;;;13.73;;
76863;SDS011;65834;52.364;9.754;2024-03-08T07:23:51;27.90;;;15.60;;
76863;SDS011;65834;52.364;9.754;2024-03-08T07:26:36;27.23;;;13.77;;
76863;SDS011;65834;52.364;9.754;2024-03-08T07:29:06;27.53;;;14.20;;
76863;SDS011;65834;52.364;9.754;2024-03-08T07:31:35;28.27;;;16.53;;
76863;SDS011;65834;52.364;9.754;2024-03-08T07:34:16;29.10;;;15.37;;
76863;SDS011;65834;52.364;9.754;2024-03-08T07:36:47;27.37;;;14.27;;
76863;SDS011;65834;52.364;9.754;2024-03-08T07:39:20;26.63;;;14.50;;
76863;SDS011;65834;52.364;9.754;2024-03-08T07:41:50;25.53;;;14.43;;
76863;SDS011;65834;52.364;9.754;2024-03-08T07:44:20;29.40;;;14.93;;
76863;SDS011;65834;52.364;9.754;2024-03-08T07:46:50;28.30;;;14.67;;
76863;SDS011;65834;52.364;9.754;2024-03-08T07:49:23;27.50;;;13.73;;
76863;SDS011;65834;52.364;9.754;2024-03-08T07:51:52;26.50;;;14.90;;
76863;SDS011;65834;52.364;9.754;2024-03-08T07:54:25;26.57;;;13.77;;
76863;SDS011;65834;52.364;9.754;2024-03-08T07:56:55;26.35;;;14.35;;
76863;SDS011;65834;52.364;9.754;2024-03-08T07:59:24;27.63;;;14.70;;
76863;SDS011;65834;52.364;9.754;2024-03-08T08:01:54;27.40;;;15.10;;
76863;SDS011;65834;52.364;9.754;2024-03-08T08:04:24;26.27;;;14.33;;
76863;SDS011;65834;52.364;9.754;2024-03-08T08:06:54;25.87;;;14.50;;
76863;SDS011;65834;52.364;9.754;2024-03-08T08:09:26;27.47;;;14.23;;
76863;SDS011;65834;52.364;9.754;2024-03-08T08:12:01;27.93;;;14.00;;
76863;SDS011;65834;52.364;9.754;2024-03-08T08:14:31;26.87;;;13.80;;
76863;SDS011;65834;52.364;9.754;2024-03-08T08:17:00;25.17;;;14.07;;
76863;SDS011;65834;52.364;9.754;2024-03-08T08:19:31;25.70;;;14.50;;
76863;SDS011;65834;52.364;9.754;2024-03-08T09:21:36;26.83;;;14.83;;
76863;SDS011;65834;52.364;9.754;2024-03-08T09:24:06;27.60;;;16.13;;
76863;SDS011;65834;52.364;9.754;2024-03-08T09:26:36;25.90;;;15.03;;
76863;SDS011;65834;52.364;9.754;2024-03-08T09:29:08;26.42;;;15.75;;
76863;SDS011;65834;52.364;9.754;2024-03-08T09:31:38;30.53;;;16.17;;
76863;SDS011;65834;52.364;9.754;2024-03-08T09:34:08;27.60;;;15.50;;
76863;SDS011;65834;52.364;9.754;2024-03-08T09:36:48;28.87;;;15.43;;
76863;SDS011;65834;52.364;9.754;2024-03-08T09:41:51;27.55;;;14.68;;
76863;SDS011;65834;52.364;9.754;2024-03-08T09:44:22;25.33;;;15.53;;
76863;SDS011;65834;52.364;9.754;2024-03-08T09:46:54;25.83;;;14.20;;
76863;SDS011;65834;52.364;9.754;2024-03-08T09:49:25;27.43;;;15.23;;
76863;SDS011;65834;52.364;9.754;2024-03-08T09:51:58;27.37;;;15.50;;
76863;SDS011;65834;52.364;9.754;2024-03-08T09:54:31;26.63;;;16.00;;
76863;SDS011;65834;52.364;9.754;2024-03-08T09:57:01;26.47;;;15.40;;
76863;SDS011;65834;52.364;9.754;2024-03-08T09:59:34;28.23;;;16.20;;
76863;SDS011;65834;52.364;9.754;2024-03-08T10:02:15;26.67;;;15.83;;
76863;SDS011;65834;52.364;9.754;2024-03-08T10:04:45;30.17;;;15.93;;
76863;SDS011;65834;52.364;9.754;2024-03-08T10:07:22;23.77;;;14.80;;
76863;SDS011;65834;52.364;9.754;2024-03-08T10:09:52;26.35;;;14.63;;
76863;SDS011;65834;52.364;9.754;2024-03-08T10:12:22;28.43;;;16.33;;
76863;SDS011;65834;52.364;9.754;2024-03-08T10:14:55;26.52;;;15.20;;
76863;SDS011;65834;52.364;9.754;2024-03-08T10:17:24;25.70;;;14.90;;
76863;SDS011;65834;52.364;9.754;2024-03-08T10:19:59;29.57;;;15.60;;
76863;SDS011;65834;52.364;9.754;2024-03-08T10:22:44;27.48;;;14.57;;
76863;SDS011;65834;52.364;9.754;2024-03-08T10:25:32;29.47;;;15.97;;
76863;SDS011;65834;52.364;9.754;2024-03-08T10:28:03;28.43;;;15.27;;
76863;SDS011;65834;52.364;9.754;2024-03-08T10:30:33;27.97;;;16.70;;
76863;SDS011;65834;52.364;9.754;2024-03-08T10:33:03;33.27;;;17.30;;
76863;SDS011;65834;52.364;9.754;2024-03-08T10:35:33;29.23;;;15.43;;
76863;SDS011;65834;52.364;9.754;2024-03-08T10:38:06;28.43;;;15.43;;
76863;SDS011;65834;52.364;9.754;2024-03-08T10:40:45;28.20;;;16.73;;
76863;SDS011;65834;52.364;9.754;2024-03-08T10:43:21;27.37;;;15.27;;
76863;SDS011;65834;52.364;9.754;2024-03-08T10:45:59;28.00;;;14.70;;
76863;SDS011;65834;52.364;9.754;2024-03-08T10:48:39;27.53;;;15.90;;
76863;SDS011;65834;52.364;9.754;2024-03-08T10:51:13;28.43;;;16.17;;
76863;SDS011;65834;52.364;9.754;2024-03-08T10:53:47;30.00;;;16.47;;
76863;SDS011;65834;52.364;9.754;2024-03-08T10:56:18;26.67;;;15.93;;
76863;SDS011;65834;52.364;9.754;2024-03-08T10:58:49;28.03;;;15.80;;
76863;SDS011;65834;52.364;9.754;2024-03-08T11:01:19;29.10;;;15.77;;
76863;SDS011;65834;52.364;9.754;2024-03-08T11:03:50;27.40;;;16.07;;
76863;SDS011;65834;52.364;9.754;2024-03-08T11:06:23;27.92;;;15.48;;
76863;SDS011;65834;52.364;9.754;2024-03-08T11:09:03;24.33;;;15.17;;
76863;SDS011;65834;52.364;9.754;2024-03-08T11:11:39;25.50;;;14.50;;
76863;SDS011;65834;52.364;9.754;2024-03-08T11:14:42;26.43;;;15.80;;
76863;SDS011;65834;52.364;9.754;2024-03-08T11:19:46;23.98;;;13.25;;
76863;SDS011;65834;52.364;9.754;2024-03-08T11:22:22;25.80;;;14.97;;
76863;SDS011;65834;52.364;9.754;2024-03-08T11:24:58;28.27;;;15.37;;
76863;SDS011;65834;52.364;9.754;2024-03-08T11:27:29;26.30;;;14.60;;
76863;SDS011;65834;52.364;9.754;2024-03-08T11:30:00;26.20;;;15.67;;
76863;SDS011;65834;52.364;9.754;2024-03-08T11:32:51;27.10;;;15.50;;
76863;SDS011;65834;52.364;9.754;2024-03-08T11:35:21;28.27;;;15.60;;
76863;SDS011;65834;52.364;9.754;2024-03-08T11:37:52;27.20;;;15.43;;
76863;SDS011;65834;52.364;9.754;2024-03-08T11:40:21;26.67;;;14.73;;
76863;SDS011;65834;52.364;9.754;2024-03-08T11:42:51;26.87;;;16.17;;
76863;SDS011;65834;52.364;9.754;2024-03-08T11:45:21;24.37;;;15.07;;
76863;SDS011;65834;52.364;9.754;2024-03-08T11:47:54;26.17;;;13.70;;
76863;SDS011;65834;52.364;9.754;2024-03-08T11:50:24;23.63;;;13.90;;
76863;SDS011;65834;52.364;9.754;2024-03-08T11:52:59;27.73;;;15.97;;
76863;SDS011;65834;52.364;9.754;2024-03-08T11:55:30;26.47;;;15.63;;
76863;SDS011;65834;52.364;9.754;2024-03-08T11:58:02;27.17;;;15.13;;
76863;SDS011;65834;52.364;9.754;2024-03-08T12:00:34;24.30;;;14.40;;
76863;SDS011;65834;52.364;9.754;2024-03-08T12:03:10;27.30;;;14.73;;
76863;SDS011;65834;52.364;9.754;2024-03-08T12:05:40;26.45;;;14.85;;
76863;SDS011;65834;52.364;9.754;2024-03-08T12:08:09;25.40;;;14.33;;
76863;SDS011;65834;52.364;9.754;2024-03-08T12:10:40;27.53;;;16.07;;
76863;SDS011;65834;52.364;9.754;2024-03-08T12:13:09;25.97;;;15.20;;
76863;SDS011;65834;52.364;9.754;2024-03-08T12:15:41;25.57;;;14.07;;
76863;SDS011;65834;52.364;9.754;2024-03-08T12:18:13;24.83;;;13.90;;
76863;SDS011;65834;52.364;9.754;2024-03-08T12:20:43;23.50;;;12.50;;
76863;SDS011;65834;52.364;9.754;2024-03-08T12:23:16;26.33;;;12.70;;
76863;SDS011;65834;52.364;9.754;2024-03-08T12:25:46;22.30;;;11.37;;
76863;SDS011;65834;52.364;9.754;2024-03-08T12:28:16;23.03;;;12.63;;
76863;SDS011;65834;52.364;9.754;2024-03-08T12:30:49;26.08;;;12.82;;
76863;SDS011;65834;52.364;9.754;2024-03-08T12:33:23;24.48;;;12.73;;
76863;SDS011;65834;52.364;9.754;2024-03-08T12:35:54;21.98;;;12.35;;
76863;SDS011;65834;52.364;9.754;2024-03-08T12:38:27;23.27;;;11.60;;
76863;SDS011;65834;52.364;9.754;2024-03-08T12:40:58;23.47;;;12.23;;
76863;SDS011;65834;52.364;9.754;2024-03-08T12:43:29;21.93;;;12.60;;
76863;SDS011;65834;52.364;9.754;2024-03-08T12:46:00;23.30;;;13.37;;
76863;SDS011;65834;52.364;9.754;2024-03-08T12:48:36;24.90;;;14.20;;
76863;SDS011;65834;52.364;9.754;2024-03-08T12:51:07;24.90;;;13.43;;
76863;SDS011;65834;52.364;9.754;2024-03-08T12:53:37;25.00;;;13.93;;
76863;SDS011;65834;52.364;9.754;2024-03-08T12:56:07;24.17;;;13.53;;
76863;SDS011;65834;52.364;9.754;2024-03-08T12:58:37;21.90;;;12.77;;
76863;SDS011;65834;52.364;9.754;2024-03-08T13:01:09;22.37;;;12.67;;
76863;SDS011;65834;52.364;9.754;2024-03-08T13:03:41;24.03;;;12.77;;
76863;SDS011;65834;52.364;9.754;2024-03-08T13:06:12;24.70;;;13.40;;
76863;SDS011;65834;52.364;9.754;2024-03-08T13:08:42;25.50;;;15.80;;
76863;SDS011;65834;52.364;9.754;2024-03-08T13:11:14;26.33;;;15.60;;
76863;SDS011;65834;52.364;9.754;2024-03-08T13:13:44;27.80;;;15.30;;
76863;SDS011;65834;52.364;9.754;2024-03-08T13:16:14;26.47;;;15.63;;
76863;SDS011;65834;52.364;9.754;2024-03-08T13:18:48;25.83;;;15.03;;
76863;SDS011;65834;52.364;9.754;2024-03-08T13:21:20;26.20;;;14.63;;
76863;SDS011;65834;52.364;9.754;2024-03-08T13:23:51;26.67;;;15.30;;
76863;SDS011;65834;52.364;9.754;2024-03-08T13:26:21;27.20;;;15.10;;
76863;SDS011;65834;52.364;9.754;2024-03-08T13:28:52;26.83;;;15.57;;
76863;SDS011;65834;52.364;9.754;2024-03-08T13:31:23;26.43;;;15.37;;
76863;SDS011;65834;52.364;9.754;2024-03-08T13:33:55;25.17;;;14.90;;
76863;SDS011;65834;52.364;9.754;2024-03-08T13:36:26;25.33;;;13.43;;
76863;SDS011;65834;52.364;9.754;2024-03-08T13:39:05;25.80;;;14.07;;
76863;SDS011;65834;52.364;9.754;2024-03-08T13:41:42;27.63;;;14.63;;
76863;SDS011;65834;52.364;9.754;2024-03-08T13:44:11;24.03;;;14.00;;
76863;SDS011;65834;52.364;9.754;2024-03-08T13:46:41;26.73;;;13.83;;
76863;SDS011;65834;52.364;9.754;2024-03-08T13:49:14;25.10;;;15.00;;
76863;SDS011;65834;52.364;9.754;2024-03-08T13:51:44;24.25;;;14.18;;
76863;SDS011;65834;52.364;9.754;2024-03-08T13:54:15;23.03;;;13.37;;
76863;SDS011;65834;52.364;9.754;2024-03-08T13:56:45;24.27;;;13.53;;
76863;SDS011;65834;52.364;9.754;2024-03-08T13:59:16;22.87;;;13.20;;
76863;SDS011;65834;52.364;9.754;2024-03-08T14:01:49;25.57;;;14.73;;
76863;SDS011;65834;52.364;9.754;2024-03-08T14:04:21;24.90;;;14.83;;
76863;SDS011;65834;52.364;9.754;2024-03-08T14:06:51;25.17;;;14.00;;
76863;SDS011;65834;52.364;9.754;2024-03-08T14:09:26;24.43;;;14.77;;
76863;SDS011;65834;52.364;9.754;2024-03-08T14:11:57;24.27;;;13.70;;
76863;SDS011;65834;52.364;9.754;2024-03-08T14:14:29;24.67;;;13.85;;
76863;SDS011;65834;52.364;9.754;2024-03-08T14:17:00;23.73;;;12.67;;
76863;SDS011;65834;52.364;9.754;2024-03-08T14:19:33;22.67;;;12.93;;
76863;SDS011;65834;52.364;9.754;2024-03-08T14:22:03;22.80;;;13.35;;
76863;SDS011;65834;52.364;9.754;2024-03-08T14:24:33;24.87;;;13.90;;
76863;SDS011;65834;52.364;9.754;2024-03-08T14:27:03;24.37;;;12.43;;
76863;SDS011;65834;52.364;9.754;2024-03-08T14:29:35;20.97;;;12.23;;
76863;SDS011;65834;52.364;9.754;2024-03-08T14:32:05;22.57;;;12.53;;
76863;SDS011;65834;52.364;9.754;2024-03-08T14:34:39;22.97;;;12.67;;
76863;SDS011;65834;52.364;9.754;2024-03-08T14:37:10;22.57;;;11.93;;
76863;SDS011;65834;52.364;9.754;2024-03-08T14:39:40;27.13;;;12.67;;
76863;SDS011;65834;52.364;9.754;2024-03-08T14:42:10;22.93;;;13.53;;
76863;SDS011;65834;52.364;9.754;2024-03-08T14:44:41;22.33;;;11.10;;
76863;SDS011;65834;52.364;9.754;2024-03-08T14:47:14;22.87;;;11.97;;
76863;SDS011;65834;52.364;9.754;2024-03-08T14:49:46;23.70;;;13.07;;
76863;SDS011;65834;52.364;9.754;2024-03-08T14:52:16;20.67;;;11.55;;
76863;SDS011;65834;52.364;9.754;2024-03-08T14:54:58;24.13;;;12.30;;
76863;SDS011;65834;52.364;9.754;2024-03-08T14:57:29;22.03;;;11.87;;
76863;SDS011;65834;52.364;9.754;2024-03-08T14:59:59;22.77;;;12.30;;
76863;SDS011;65834;52.364;9.754;2024-03-08T15:02:33;21.13;;;11.93;;
76863;SDS011;65834;52.364;9.754;2024-03-08T15:05:08;22.08;;;12.57;;
76863;SDS011;65834;52.364;9.754;2024-03-08T15:07:38;24.90;;;12.70;;
76863;SDS011;65834;52.364;9.754;2024-03-08T15:10:09;22.60;;;13.03;;
76863;SDS011;65834;52.364;9.754;2024-03-08T15:12:44;22.33;;;12.67;;
76863;SDS011;65834;52.364;9.754;2024-03-08T15:15:18;24.13;;;13.03;;
76863;SDS011;65834;52.364;9.754;2024-03-08T15:17:49;22.27;;;12.77;;
76863;SDS011;65834;52.364;9.754;2024-03-08T15:20:23;24.13;;;13.43;;
76863;SDS011;65834;52.364;9.754;2024-03-08T15:22:56;21.67;;;11.93;;
76863;SDS011;65834;52.364;9.754;2024-03-08T15:25:26;25.47;;;13.47;;
76863;SDS011;65834;52.364;9.754;2024-03-08T15:27:57;24.17;;;13.93;;
76863;SDS011;65834;52.364;9.754;2024-03-08T15:30:30;22.80;;;12.70;;
76863;SDS011;65834;52.364;9.754;2024-03-08T15:33:02;23.47;;;12.43;;
76863;SDS011;65834;52.364;9.754;2024-03-08T15:35:39;21.63;;;11.93;;
76863;SDS011;65834;52.364;9.754;2024-03-08T15:38:08;21.05;;;11.88;;
76863;SDS011;65834;52.364;9.754;2024-03-08T15:40:38;26.80;;;13.73;;
76863;SDS011;65834;52.364;9.754;2024-03-08T15:43:08;23.87;;;13.47;;
76863;SDS011;65834;52.364;9.754;2024-03-08T15:45:37;24.73;;;13.27;;
76863;SDS011;65834;52.364;9.754;2024-03-08T15:48:07;23.97;;;13.77;;
76863;SDS011;65834;52.364;9.754;2024-03-08T15:50:39;23.90;;;13.40;;
76863;SDS011;65834;52.364;9.754;2024-03-08T15:53:09;21.73;;;13.27;;
76863;SDS011;65834;52.364;9.754;2024-03-08T15:55:41;21.45;;;12.00;;